Time;durP1;ratioP1;P1;durP2;ratioP2;P2;SDS_P1;SDS_P2;PMS_P1;PMS_P2;Temp;Humidity;BMP_temperature;BMP_pressure;BME280_temperature;BME280_humidity;BME280_pressure;Samples;Min_cycle;Max_cycle;Signal;HPM_P1;HPM_P2
2023/04/06 00:02:13;;;;;;;11.98;5.93;;;;;;;6.44;48.37;101192.09;4956619;28;20047;-79
2023/04/06 00:04:41;;;;;;;9.57;5.60;;;;;;;6.41;48.81;101197.19;4952966;28;20054;-79
2023/04/06 00:07:09;;;;;;;9.13;5.80;;;;;;;6.25;48.93;101198.72;4952704;28;20054;-79
2023/04/06 00:09:37;;;;;;;15.93;6.38;;;;;;;6.25;50.11;101199.53;4952957;28;20376;-79
2023/04/06 00:12:05;;;;;;;9.27;6.15;;;;;;;6.12;49.59;101186.16;4952864;29;20051;-79
2023/04/06 00:14:33;;;;;;;10.77;6.38;;;;;;;6.23;48.93;101179.06;4951523;28;20044;-79
2023/04/06 00:17:01;;;;;;;8.30;5.97;;;;;;;6.24;48.98;101181.56;4952733;28;20410;-79
2023/04/06 00:19:32;;;;;;;9.57;6.10;;;;;;;6.24;49.18;101183.44;4914004;28;1252558;-79
2023/04/06 00:22:02;;;;;;;10.43;6.03;;;;;;;6.28;49.72;101180.03;4972712;28;20058;-79
2023/04/06 00:24:30;;;;;;;8.30;5.40;;;;;;;6.25;49.55;101187.84;4972735;28;20058;-79
2023/04/06 00:26:58;;;;;;;11.20;6.10;;;;;;;6.20;48.91;101187.72;4971698;28;20047;-79
2023/04/06 00:29:26;;;;;;;10.35;5.40;;;;;;;6.01;49.28;101176.94;4972351;28;20062;-79
2023/04/06 00:31:54;;;;;;;9.25;5.95;;;;;;;6.21;48.70;101175.78;4972594;28;20399;-79
2023/04/06 00:34:22;;;;;;;9.20;5.55;;;;;;;6.27;48.61;101172.94;4971018;28;20498;-79
2023/04/06 00:36:50;;;;;;;8.25;5.20;;;;;;;6.18;49.32;101172.47;4954639;28;20042;-79
2023/04/06 00:39:18;;;;;;;7.57;5.13;;;;;;;6.12;49.72;101178.81;4954947;28;20043;-79
2023/04/06 00:41:52;;;;;;;9.30;5.13;;;;;;;6.18;48.31;101175.19;4972388;28;20048;-79
2023/04/06 00:44:20;;;;;;;9.27;5.45;;;;;;;6.16;48.49;101166.44;4972118;28;20394;-79
2023/04/06 00:46:48;;;;;;;9.32;5.60;;;;;;;6.08;49.76;101172.22;4956400;28;20038;-79
2023/04/06 00:49:17;;;;;;;8.60;6.05;;;;;;;5.98;50.76;101166.50;4963667;28;20051;-79
2023/04/06 00:51:45;;;;;;;8.52;6.10;;;;;;;5.95;51.49;101175.94;4976100;28;20046;-79
2023/04/06 00:54:14;;;;;;;10.20;5.95;;;;;;;5.91;52.66;101185.63;4958765;28;20039;-79
2023/04/06 00:56:43;;;;;;;11.57;5.63;;;;;;;5.90;51.67;101176.66;4958399;28;20034;-79
2023/04/06 00:59:12;;;;;;;11.80;6.15;;;;;;;5.89;49.80;101166.03;4975768;28;20043;-79
2023/04/06 01:01:42;;;;;;;10.25;5.75;;;;;;;5.87;53.54;101155.38;4958423;28;20043;-79
2023/04/06 01:04:26;;;;;;;9.40;4.60;;;;;;;5.86;50.75;101161.06;4958798;28;20047;-79
2023/04/06 01:06:55;;;;;;;8.35;5.40;;;;;;;5.91;49.94;101162.00;4973865;28;20043;-79
2023/04/06 01:09:32;;;;;;;10.52;5.38;;;;;;;5.95;51.11;101151.50;4967345;28;20053;-79
2023/04/06 01:12:04;;;;;;;9.23;5.97;;;;;;;5.85;51.57;101146.66;4974398;28;20050;-79
2023/04/06 01:14:34;;;;;;;9.73;5.45;;;;;;;5.74;51.22;101158.31;4973956;28;20046;-79
2023/04/06 01:17:03;;;;;;;9.48;5.10;;;;;;;5.77;49.99;101160.59;4957510;28;20087;-78
2023/04/06 01:19:33;;;;;;;7.57;5.20;;;;;;;5.87;49.71;101155.38;4958111;28;20058;-79
2023/04/06 01:22:01;;;;;;;9.32;5.20;;;;;;;5.87;49.16;101155.38;4975018;28;20047;-79
2023/04/06 01:24:32;;;;;;;7.25;4.72;;;;;;;6.00;49.00;101169.81;4975743;28;20043;-79
2023/04/06 01:27:32;;;;;;;8.45;5.25;;;;;;;5.88;50.51;101162.47;4960231;28;20074;-78
2023/04/06 01:30:10;;;;;;;8.60;5.32;;;;;;;5.85;52.21;101157.53;4959367;28;20477;-78
2023/04/06 01:32:58;;;;;;;8.32;5.43;;;;;;;5.70;51.42;101157.13;4974968;28;20051;-78
2023/04/06 01:35:45;;;;;;;10.43;5.20;;;;;;;5.63;51.59;101160.78;4957844;28;20038;-78
2023/04/06 01:38:16;;;;;;;7.15;5.10;;;;;;;5.68;50.94;101172.84;4973642;28;20065;-78
2023/04/06 01:40:46;;;;;;;8.55;5.03;;;;;;;5.71;51.46;101150.66;4957834;28;20047;-78
2023/04/06 01:43:16;;;;;;;6.68;4.93;;;;;;;5.64;51.01;101161.59;4957235;28;20069;-78
2023/04/06 01:46:14;;;;;;;6.63;4.88;;;;;;;5.63;51.21;101155.34;4968739;28;20391;-78
2023/04/06 01:48:44;;;;;;;9.15;5.22;;;;;;;5.70;50.30;101152.53;4974614;28;20039;-78
2023/04/06 01:51:32;;;;;;;9.57;5.28;;;;;;;5.58;50.38;101157.91;4974406;28;20058;-78
2023/04/06 01:54:03;;;;;;;8.75;4.97;;;;;;;5.55;52.32;101154.84;4941560;28;20058;-78
2023/04/06 01:56:40;;;;;;;7.53;5.40;;;;;;;5.49;51.26;101159.31;4973147;28;20046;-78
2023/04/06 01:59:23;;;;;;;8.38;5.45;;;;;;;5.43;51.54;101146.69;4973946;28;20047;-78
2023/04/06 02:01:51;;;;;;;8.85;5.80;;;;;;;5.47;52.00;101147.88;4973686;28;20047;-78
2023/04/06 02:04:21;;;;;;;9.30;5.45;;;;;;;5.49;52.76;101154.72;4973607;28;20047;-78
2023/04/06 02:06:54;;;;;;;14.95;7.78;;;;;;;5.48;53.21;101153.06;4973392;28;20051;-78
2023/04/06 02:09:25;;;;;;;33.20;13.82;;;;;;;5.47;53.62;101156.84;4957464;28;20054;-78
2023/04/06 02:11:53;;;;;;;32.53;14.85;;;;;;;5.41;56.21;101157.75;4974795;28;20074;-78
2023/04/06 02:14:26;;;;;;;31.20;11.95;;;;;;;5.42;53.03;101164.84;4973509;28;20053;-78
2023/04/06 02:16:58;;;;;;;20.77;9.52;;;;;;;5.37;53.95;101143.81;4957023;28;20050;-78
2023/04/06 02:19:26;;;;;;;19.35;8.25;;;;;;;5.40;54.07;101152.56;4974004;28;20054;-78
2023/04/06 02:21:54;;;;;;;14.10;7.60;;;;;;;5.45;53.45;101158.13;4973689;28;20054;-78
2023/04/06 02:24:23;;;;;;;14.60;7.50;;;;;;;5.53;54.05;101160.53;4956988;28;20043;-78
2023/04/06 02:26:51;;;;;;;11.43;6.75;;;;;;;5.61;53.21;101152.03;4973958;28;20047;-78
2023/04/06 02:29:20;;;;;;;10.25;6.50;;;;;;;5.82;53.57;101165.31;4956733;28;20042;-78
2023/04/06 02:31:48;;;;;;;9.88;5.85;;;;;;;5.83;53.00;101148.78;4972468;28;20051;-78
2023/04/06 02:34:19;;;;;;;8.82;6.32;;;;;;;5.75;54.52;101158.09;4972084;28;20047;-78
2023/04/06 02:36:50;;;;;;;7.80;5.82;;;;;;;5.63;53.75;101159.97;4972786;28;20035;-78
2023/04/06 02:39:19;;;;;;;8.70;5.60;;;;;;;5.62;54.74;101171.88;4973731;28;20055;-78
2023/04/06 02:41:47;;;;;;;8.25;5.07;;;;;;;5.54;54.40;101167.59;4971871;28;20050;-78
2023/04/06 02:44:19;;;;;;;10.75;5.53;;;;;;;5.57;54.50;101169.84;4972723;28;20058;-78
2023/04/06 02:46:47;;;;;;;8.00;5.45;;;;;;;5.60;54.36;101171.28;4972142;28;20050;-78
2023/04/06 02:49:15;;;;;;;9.23;6.10;;;;;;;5.41;55.18;101165.91;4973122;28;20045;-78
2023/04/06 02:51:44;;;;;;;8.65;5.60;;;;;;;5.40;56.67;101171.56;4972335;28;20042;-78
2023/04/06 02:54:23;;;;;;;6.53;5.30;;;;;;;5.50;55.60;101156.38;4972390;28;20047;-78
2023/04/06 02:56:51;;;;;;;7.68;4.93;;;;;;;5.45;56.28;101163.56;4956448;28;20039;-78
2023/04/06 02:59:20;;;;;;;7.72;5.03;;;;;;;5.45;56.82;101168.97;4972289;28;20050;-78
2023/04/06 03:01:59;;;;;;;7.18;4.90;;;;;;;5.32;56.79;101164.59;4955888;28;20047;-78
2023/04/06 03:04:27;;;;;;;7.43;4.70;;;;;;;5.14;57.20;101151.88;4972138;28;20042;-78
2023/04/06 03:06:57;;;;;;;9.27;4.80;;;;;;;5.15;58.83;101167.09;4956304;28;20038;-78
2023/04/06 03:09:38;;;;;;;8.02;5.00;;;;;;;5.11;56.73;101166.72;4971387;28;20053;-78
2023/04/06 03:12:06;;;;;;;9.27;5.03;;;;;;;5.24;55.75;101160.31;4955330;28;20046;-78
2023/04/06 03:14:56;;;;;;;7.10;4.80;;;;;;;5.15;56.95;101158.97;4973068;28;20490;-78
2023/04/06 03:17:25;;;;;;;7.88;5.10;;;;;;;5.22;56.47;101167.81;4972035;28;20042;-78
2023/04/06 03:19:56;;;;;;;6.03;5.15;;;;;;;5.16;56.53;101166.88;4972121;28;20051;-78
2023/04/06 03:22:24;;;;;;;6.88;5.05;;;;;;;5.07;58.29;101160.94;4954708;28;20051;-78
2023/04/06 03:24:52;;;;;;;8.80;6.30;;;;;;;5.03;57.83;101156.19;4973069;28;20520;-78
2023/04/06 03:27:20;;;;;;;10.45;6.20;;;;;;;5.02;57.13;101160.78;4956104;28;20043;-78
2023/04/06 03:29:48;;;;;;;8.43;5.10;;;;;;;5.02;56.78;101160.78;4971674;28;20046;-78
2023/04/06 03:32:21;;;;;;;8.77;5.25;;;;;;;5.06;56.24;101150.31;4955069;28;20047;-78
2023/04/06 03:34:49;;;;;;;7.07;5.00;;;;;;;5.10;56.85;101157.75;4979253;28;20046;-78
2023/04/06 03:37:17;;;;;;;13.07;5.25;;;;;;;5.00;58.78;101149.34;4958117;28;20054;-78
2023/04/06 03:39:52;;;;;;;6.43;4.90;;;;;;;4.90;57.43;101151.75;4971553;28;20112;-78
2023/04/06 03:42:23;;;;;;;6.88;4.68;;;;;;;4.80;57.24;101144.16;4970938;28;20066;-78
2023/04/06 03:44:55;;;;;;;7.55;4.97;;;;;;;4.89;55.68;101155.53;4955314;28;20050;-78
2023/04/06 03:47:23;;;;;;;8.43;4.93;;;;;;;4.84;55.60;101151.63;4971875;28;20047;-78
2023/04/06 03:49:55;;;;;;;11.27;4.78;;;;;;;4.88;56.63;101165.53;4971646;28;20042;-78
2023/04/06 03:52:23;;;;;;;8.18;5.00;;;;;;;4.77;57.63;101150.88;4954274;28;20051;-78
2023/04/06 03:54:52;;;;;;;7.45;5.07;;;;;;;4.81;58.49;101159.38;4967135;28;20035;-78
2023/04/06 03:57:20;;;;;;;7.55;4.93;;;;;;;4.70;58.53;101150.94;4972310;28;20051;-78
2023/04/06 03:59:48;;;;;;;7.70;4.90;;;;;;;4.69;54.98;101162.84;4971380;28;20081;-78
2023/04/06 04:02:16;;;;;;;8.00;4.70;;;;;;;4.65;55.29;101150.78;4972660;28;20038;-80
2023/04/06 04:04:44;;;;;;;7.88;4.78;;;;;;;4.71;57.46;101159.91;4971676;28;20042;-80
2023/04/06 04:07:12;;;;;;;6.10;4.32;;;;;;;4.63;57.05;101157.47;4970984;28;20035;-80
2023/04/06 04:09:40;;;;;;;6.85;4.70;;;;;;;4.49;58.45;101146.78;4971157;28;20069;-79
2023/04/06 04:12:08;;;;;;;9.70;5.20;;;;;;;4.52;56.53;101157.19;4971068;28;20047;-80
2023/04/06 04:14:36;;;;;;;7.93;4.53;;;;;;;4.49;57.36;101157.63;4971233;28;20057;-80
2023/04/06 04:17:04;;;;;;;9.90;4.93;;;;;;;4.42;57.62;101149.59;4970906;28;20042;-80
2023/04/06 04:19:32;;;;;;;6.95;4.47;;;;;;;4.37;58.43;101144.00;4972344;28;20055;-79
2023/04/06 04:22:00;;;;;;;6.00;4.35;;;;;;;4.26;59.17;101150.97;4972660;28;20490;-79
2023/04/06 04:24:33;;;;;;;6.32;4.57;;;;;;;4.25;60.13;101162.06;4958950;28;20051;-79
2023/04/06 04:27:02;;;;;;;7.72;4.78;;;;;;;4.17;59.56;101150.44;4975185;28;20039;-80
2023/04/06 04:29:32;;;;;;;6.03;4.55;;;;;;;4.24;58.67;101163.94;4959317;28;20458;-79
2023/04/06 04:32:04;;;;;;;7.30;4.18;;;;;;;4.16;59.77;101161.50;4956955;28;20051;-79
2023/04/06 04:34:33;;;;;;;9.77;5.20;;;;;;;4.16;60.28;101164.22;4970790;28;20047;-79
2023/04/06 04:37:03;;;;;;;10.88;5.70;;;;;;;4.11;61.75;101162.16;4964320;28;20066;-79
2023/04/06 04:39:51;;;;;;;7.65;5.00;;;;;;;4.06;61.39;101153.88;4973341;28;20054;-80
2023/04/06 04:42:19;;;;;;;10.65;5.05;;;;;;;4.44;59.21;101155.59;4958561;28;20043;-80
2023/04/06 04:44:51;;;;;;;13.23;4.80;;;;;;;4.41;58.93;101164.16;4958206;28;20078;-80
2023/04/06 04:47:31;;;;;;;6.15;4.40;;;;;;;4.36;58.22;101164.03;4939904;29;20058;-80
2023/04/06 04:50:00;;;;;;;8.60;5.03;;;;;;;4.35;58.09;101180.50;4957073;28;20054;-80
2023/04/06 04:52:29;;;;;;;10.60;4.90;;;;;;;4.35;58.15;101173.19;4974245;28;20050;-80
2023/04/06 04:55:12;;;;;;;6.65;4.50;;;;;;;4.50;57.73;101172.84;4974501;28;20046;-80
2023/04/06 04:57:42;;;;;;;11.45;4.43;;;;;;;4.50;58.01;101169.31;4974695;28;20057;-80
2023/04/06 05:00:11;;;;;;;6.53;4.22;;;;;;;4.48;56.25;101172.25;4964860;28;20039;-79
2023/04/06 05:02:42;;;;;;;6.30;4.25;;;;;;;4.45;55.08;101159.13;4958597;28;20046;-80
2023/04/06 05:05:17;;;;;;;5.82;4.03;;;;;;;4.47;56.00;101167.03;4974358;28;20047;-78
2023/04/06 05:07:46;;;;;;;12.65;4.32;;;;;;;4.46;55.91;101160.81;4973849;28;20047;-75
2023/04/06 05:10:24;;;;;;;6.03;4.35;;;;;;;4.50;55.59;101158.47;4974219;28;20054;-80
2023/04/06 05:12:57;;;;;;;7.30;4.53;;;;;;;4.61;55.66;101168.56;4959322;28;20062;-80
2023/04/06 05:15:26;;;;;;;6.93;4.57;;;;;;;4.80;56.14;101177.53;4974321;28;20046;-81
2023/04/06 05:18:01;;;;;;;;;;;;;;;4.73;55.45;101174.06;4960243;28;20509;-81
2023/04/06 05:20:33;;;;;;;7.35;4.18;;;;;;;4.77;55.89;101169.84;4967906;28;20405;-80
2023/04/06 05:23:02;;;;;;;8.38;4.45;;;;;;;4.79;55.47;101180.47;4972916;28;20071;-82
2023/04/06 05:25:31;;;;;;;7.53;4.65;;;;;;;4.83;54.79;101185.22;4958731;28;20045;-83
2023/04/06 05:28:07;;;;;;;6.03;4.22;;;;;;;4.88;54.27;101178.28;4955627;28;20071;-83
2023/04/06 05:30:38;;;;;;;4.72;4.18;;;;;;;5.04;54.39;101182.25;4958304;28;20058;-83
2023/04/06 05:33:09;;;;;;;8.45;4.32;;;;;;;5.21;54.14;101193.31;4954397;28;20040;-81
2023/04/06 05:35:56;;;;;;;7.07;4.07;;;;;;;5.42;53.99;101202.03;4959346;28;20063;-81
2023/04/06 05:38:24;;;;;;;8.07;4.72;;;;;;;5.50;53.45;101193.56;4954670;28;20044;-80
2023/04/06 05:40:54;;;;;;;9.43;4.75;;;;;;;5.57;53.36;101191.56;4955810;28;20035;-81
2023/04/06 05:43:26;;;;;;;6.10;4.15;;;;;;;5.59;53.10;101192.19;4954653;28;20058;-81
2023/04/06 05:45:57;;;;;;;4.82;3.88;;;;;;;5.64;52.20;101189.56;4954585;28;20051;-81
2023/04/06 05:48:25;;;;;;;7.35;4.70;;;;;;;5.96;51.51;101188.47;4951462;28;20405;-79
2023/04/06 05:50:54;;;;;;;9.32;4.90;;;;;;;6.01;51.76;101190.50;4980517;28;20047;-79
2023/04/06 05:53:29;;;;;;;7.95;4.70;;;;;;;6.03;52.35;101204.72;4973875;28;20058;-78
2023/04/06 05:56:03;;;;;;;10.15;5.03;;;;;;;6.24;51.50;101197.88;4970640;28;20074;-82
2023/04/06 05:58:32;;;;;;;14.15;4.63;;;;;;;6.48;49.64;101191.59;4973600;28;20039;-79
2023/04/06 06:01:01;;;;;;;9.40;4.75;;;;;;;6.86;48.16;101193.00;4971528;28;20058;-79
2023/04/06 06:03:37;;;;;;;18.90;5.03;;;;;;;7.03;47.82;101192.25;4957586;28;20062;-79
2023/04/06 06:06:06;;;;;;;6.47;4.43;;;;;;;7.00;47.41;101199.00;4956041;28;20050;-80
2023/04/06 06:09:12;;;;;;;5.65;4.25;;;;;;;7.26;46.41;101208.50;4967998;28;20406;-80
2023/04/06 06:11:50;;;;;;;11.18;4.20;;;;;;;7.51;46.14;101199.16;4972050;28;20050;-80
2023/04/06 06:14:24;;;;;;;7.40;3.72;;;;;;;7.95;45.10;101208.63;4963210;28;20055;-80
2023/04/06 06:16:54;;;;;;;8.63;4.30;;;;;;;8.17;43.75;101202.47;4972210;28;20057;-80
2023/04/06 06:19:24;;;;;;;5.00;3.58;;;;;;;8.56;42.58;101201.72;4940409;28;20065;-80
2023/04/06 06:22:02;;;;;;;10.40;4.15;;;;;;;8.56;43.89;101209.91;4973284;28;20055;-80
2023/04/06 06:24:35;;;;;;;8.30;4.20;;;;;;;8.34;42.65;101200.56;4972062;28;20055;-80
2023/04/06 06:27:04;;;;;;;9.13;4.78;;;;;;;8.41;44.32;101215.91;4942140;28;20062;-80
2023/04/06 06:29:35;;;;;;;8.85;4.95;;;;;;;8.23;45.80;101209.66;4955919;28;20034;-81
2023/04/06 06:32:06;;;;;;;6.10;3.90;;;;;;;8.50;44.27;101203.50;4955897;28;20065;-80
2023/04/06 06:34:38;;;;;;;8.20;4.07;;;;;;;8.73;43.61;101210.69;4973164;28;20369;-80
2023/04/06 06:37:11;;;;;;;7.35;4.80;;;;;;;8.51;43.95;101196.94;4972140;28;20039;-81
2023/04/06 06:39:43;;;;;;;7.57;4.15;;;;;;;8.91;42.35;101207.91;4973127;28;20046;-80
2023/04/06 06:42:15;;;;;;;6.60;3.95;;;;;;;8.78;41.81;101201.72;4955097;28;20550;-80
2023/04/06 06:45:05;;;;;;;5.53;4.20;;;;;;;9.18;42.16;101207.16;4971892;28;20494;-80
2023/04/06 06:47:34;;;;;;;7.40;5.07;;;;;;;8.94;41.59;101204.69;4971985;28;20485;-80
2023/04/06 06:50:04;;;;;;;6.10;4.30;;;;;;;9.64;38.34;101210.34;4962847;28;20047;-79
2023/04/06 06:52:33;;;;;;;9.98;5.18;;;;;;;9.53;38.97;101205.88;4961148;28;20043;-79
2023/04/06 06:55:02;;;;;;;9.63;4.97;;;;;;;9.89;37.43;101211.72;4974505;28;20054;-80
2023/04/06 06:57:33;;;;;;;9.13;4.85;;;;;;;10.29;38.18;101198.63;4960722;28;20058;-80
2023/04/06 07:00:05;;;;;;;7.80;5.10;;;;;;;10.15;37.58;101206.44;4956326;28;20512;-79
2023/04/06 07:02:38;;;;;;;6.07;4.38;;;;;;;10.48;38.20;101206.44;4972129;28;20047;-80
2023/04/06 07:05:08;;;;;;;7.80;4.43;;;;;;;10.59;36.93;101218.25;4964441;28;20059;-80
2023/04/06 07:07:55;;;;;;;7.88;4.68;;;;;;;10.62;37.83;101202.13;4963707;28;20050;-80
2023/04/06 07:10:26;;;;;;;6.15;4.43;;;;;;;10.93;35.55;101195.16;4968205;28;20055;-80
2023/04/06 07:12:55;;;;;;;8.57;4.60;;;;;;;10.70;35.63;101203.53;4965435;28;20045;-77
2023/04/06 07:15:23;;;;;;;6.38;4.72;;;;;;;11.08;34.83;101208.09;4961574;28;20055;-77
2023/04/06 07:17:52;;;;;;;11.00;4.35;;;;;;;11.07;34.88;101201.81;4956404;28;20520;-78
2023/04/06 07:20:20;;;;;;;5.90;4.20;;;;;;;11.00;36.96;101196.56;4973321;28;20053;-78
2023/04/06 07:22:50;;;;;;;6.97;4.50;;;;;;;11.30;35.01;101191.47;4971544;28;20051;-78
2023/04/06 07:25:18;;;;;;;10.23;4.38;;;;;;;11.20;35.55;101189.50;4972841;28;20043;-78
2023/04/06 07:27:46;;;;;;;7.13;4.30;;;;;;;11.31;34.82;101193.13;4964295;28;20046;-78
2023/04/06 07:30:15;;;;;;;6.88;4.60;;;;;;;11.36;35.79;101200.53;4958106;28;20047;-78
2023/04/06 07:32:43;;;;;;;7.65;4.57;;;;;;;11.57;35.16;101198.66;4955265;28;20046;-79
2023/04/06 07:35:11;;;;;;;8.18;4.70;;;;;;;11.76;36.25;101200.84;4954895;28;20397;-79
2023/04/06 07:37:40;;;;;;;6.70;4.82;;;;;;;11.80;33.52;101199.22;4972591;28;20478;-79
2023/04/06 07:40:09;;;;;;;8.85;4.60;;;;;;;11.54;34.39;101200.00;4972159;28;20057;-78
2023/04/06 07:42:38;;;;;;;9.25;4.75;;;;;;;11.69;34.57;101207.44;4971382;28;20050;-78
2023/04/06 07:45:08;;;;;;;6.78;4.00;;;;;;;11.79;35.33;101212.09;4965488;28;20043;-79
2023/04/06 07:47:35;;;;;;;6.30;4.90;;;;;;;11.93;34.24;101211.59;4952700;29;20087;-79
2023/04/06 07:50:04;;;;;;;6.35;3.95;;;;;;;11.65;35.17;101208.25;4952055;29;20402;-79
2023/04/06 07:52:33;;;;;;;5.18;4.35;;;;;;;11.34;35.31;101205.47;4952571;29;20047;-79
2023/04/06 07:55:04;;;;;;;5.57;3.92;;;;;;;11.95;34.00;101209.38;4952745;29;20052;-79
2023/04/06 07:57:31;;;;;;;5.75;4.30;;;;;;;11.92;34.45;101204.44;4953793;29;20044;-79
2023/04/06 08:00:00;;;;;;;7.32;3.92;;;;;;;12.26;32.60;101212.16;4953876;29;20047;-79
2023/04/06 08:02:38;;;;;;;7.28;4.18;;;;;;;12.63;32.50;101210.97;4952740;29;20396;-79
2023/04/06 08:05:07;;;;;;;7.15;4.47;;;;;;;12.55;32.21;101206.06;4953860;29;20491;-79
2023/04/06 08:07:36;;;;;;;7.78;4.88;;;;;;;13.07;33.38;101205.06;4953693;29;20055;-79
2023/04/06 08:10:04;;;;;;;8.48;5.28;;;;;;;12.07;33.58;101207.22;4953858;29;20047;-79
2023/04/06 08:12:33;;;;;;;7.15;5.78;;;;;;;12.06;33.93;101208.31;4953965;29;20051;-79
2023/04/06 08:15:03;;;;;;;8.15;5.55;;;;;;;11.95;34.09;101210.22;4953887;29;20047;-79
2023/04/06 08:17:34;;;;;;;9.95;5.30;;;;;;;11.88;34.67;101203.34;4953742;29;20039;-79
2023/04/06 08:20:03;;;;;;;9.75;5.35;;;;;;;11.79;34.50;101203.88;4953713;29;20040;-79
2023/04/06 08:22:31;;;;;;;9.98;5.35;;;;;;;11.94;34.44;101202.25;4953829;29;20506;-80
2023/04/06 08:24:59;;;;;;;14.02;6.15;;;;;;;11.99;33.95;101199.53;4953846;29;20055;-80
2023/04/06 08:27:27;;;;;;;9.70;5.18;;;;;;;11.35;33.54;101202.44;4953804;29;20044;-79
2023/04/06 08:29:55;;;;;;;8.98;5.03;;;;;;;11.33;34.96;101190.13;4953667;29;20047;-79
2023/04/06 08:32:24;;;;;;;10.38;5.57;;;;;;;11.78;34.71;101196.75;4953860;29;20407;-80
2023/04/06 08:34:56;;;;;;;6.63;4.63;;;;;;;12.63;32.59;101207.44;4951966;29;20059;-80
2023/04/06 08:37:24;;;;;;;8.50;5.40;;;;;;;12.88;32.39;101197.47;4953530;29;20063;-80
2023/04/06 08:39:52;;;;;;;7.72;5.00;;;;;;;13.01;30.97;101196.84;4952309;29;20054;-80
2023/04/06 08:42:21;;;;;;;8.40;5.60;;;;;;;13.36;31.40;101201.63;4953705;29;20043;-80
2023/04/06 08:44:52;;;;;;;8.57;4.60;;;;;;;12.82;31.90;101191.19;4953499;29;20455;-80
2023/04/06 08:47:20;;;;;;;10.43;4.68;;;;;;;13.19;33.22;101204.75;4953611;29;20055;-80
2023/04/06 08:49:53;;;;;;;9.55;5.55;;;;;;;13.53;32.37;101201.28;4952451;29;20483;-80
2023/04/06 08:52:22;;;;;;;6.15;4.93;;;;;;;13.59;30.73;101194.63;4953641;29;20047;-80
2023/04/06 08:54:50;;;;;;;9.30;5.10;;;;;;;13.93;31.09;101193.84;4953477;29;20054;-80
2023/04/06 08:57:19;;;;;;;7.93;4.72;;;;;;;13.73;31.37;101183.00;4953136;29;20043;-80
2023/04/06 08:59:47;;;;;;;7.50;4.93;;;;;;;13.96;31.02;101173.19;4953368;29;20486;-80
2023/04/06 09:02:18;;;;;;;9.40;5.15;;;;;;;13.89;29.86;101180.97;4952541;28;20050;-80
2023/04/06 09:04:48;;;;;;;8.25;4.75;;;;;;;13.88;30.33;101185.63;4956704;28;20047;-80
2023/04/06 09:07:16;;;;;;;10.30;4.47;;;;;;;13.34;31.64;101185.41;4956462;28;20062;-80
2023/04/06 09:09:47;;;;;;;10.55;4.75;;;;;;;13.71;30.22;101172.28;4956408;28;20394;-80
2023/04/06 09:12:29;;;;;;;6.93;4.68;;;;;;;14.14;30.08;101176.34;4974190;28;20058;-79
2023/04/06 09:14:58;;;;;;;8.05;5.05;;;;;;;14.34;30.43;101178.91;4974110;28;20059;-80
2023/04/06 09:17:29;;;;;;;8.60;5.00;;;;;;;14.50;29.53;101173.22;4956832;28;20410;-79
2023/04/06 09:19:58;;;;;;;8.02;4.80;;;;;;;13.94;30.15;101167.16;4956189;28;20047;-80
2023/04/06 09:22:35;;;;;;;8.95;4.90;;;;;;;14.24;30.62;101170.75;4957142;28;20533;-80
2023/04/06 09:25:04;;;;;;;5.47;4.07;;;;;;;13.84;29.10;101173.56;4956204;28;20051;-80
2023/04/06 09:27:37;;;;;;;7.45;4.65;;;;;;;14.56;30.09;101176.75;4956081;28;20044;-80
2023/04/06 09:30:13;;;;;;;6.85;4.80;;;;;;;14.69;28.66;101170.53;4956259;29;20054;-80
2023/04/06 09:32:49;;;;;;;7.60;4.07;;;;;;;14.95;28.38;101164.72;4955259;29;20074;-80
2023/04/06 09:35:19;;;;;;;5.30;4.05;;;;;;;14.93;29.03;101153.19;4956177;29;20525;-80
2023/04/06 09:37:49;;;;;;;5.82;4.45;;;;;;;14.86;28.96;101156.31;4956025;29;20051;-85
2023/04/06 09:40:18;;;;;;;9.05;4.07;;;;;;;14.71;29.22;101150.97;4956411;29;20494;-84
2023/04/06 09:42:52;;;;;;;8.15;4.68;;;;;;;14.38;29.32;101159.88;4956729;28;20055;-84
2023/04/06 09:45:20;;;;;;;5.13;3.97;;;;;;;14.02;30.99;101146.47;4956814;29;20047;-85
2023/04/06 09:47:51;;;;;;;7.95;4.05;;;;;;;13.88;31.26;101155.38;4956611;29;20051;-84
2023/04/06 09:50:21;;;;;;;6.18;4.30;;;;;;;13.80;30.65;101145.84;4954757;29;20058;-84
2023/04/06 09:52:54;;;;;;;7.45;5.00;;;;;;;13.77;29.93;101151.88;4954728;29;20513;-84
2023/04/06 09:55:45;;;;;;;4.75;3.88;;;;;;;13.74;30.76;101135.94;4956033;29;20043;-85
2023/04/06 09:58:19;;;;;;;5.75;4.13;;;;;;;13.87;30.39;101137.22;4954911;29;20059;-85
2023/04/06 10:01:06;;;;;;;8.10;3.97;;;;;;;13.84;30.74;101137.81;4955507;29;20043;-84
2023/04/06 10:03:40;;;;;;;7.38;4.03;;;;;;;14.01;30.25;101140.13;4955710;29;20059;-84
2023/04/06 10:06:12;;;;;;;6.93;4.28;;;;;;;13.94;31.68;101121.19;4955982;29;20051;-84
2023/04/06 10:08:47;;;;;;;6.00;4.40;;;;;;;13.90;31.17;101120.16;4955767;29;20043;-84
2023/04/06 10:11:16;;;;;;;7.13;4.68;;;;;;;13.90;29.64;101106.41;4954616;29;20054;-84
2023/04/06 10:13:48;;;;;;;6.35;4.32;;;;;;;13.94;30.56;101112.94;4955668;29;20055;-84
2023/04/06 10:16:17;;;;;;;4.72;3.85;;;;;;;14.03;30.16;101109.56;4955546;29;20043;-84
2023/04/06 10:18:51;;;;;;;7.20;4.63;;;;;;;14.02;29.84;101117.00;4954644;28;20048;-85
2023/04/06 10:21:25;;;;;;;8.63;4.70;;;;;;;13.98;31.22;101097.50;4954268;29;20051;-81
2023/04/06 10:24:00;;;;;;;6.13;4.28;;;;;;;14.15;30.55;101099.00;4955665;29;20059;-81
2023/04/06 10:26:28;;;;;;;6.25;4.78;;;;;;;14.29;28.78;101101.03;4951224;29;20048;-80
2023/04/06 10:29:03;;;;;;;12.07;4.50;;;;;;;14.52;29.59;101094.72;4952109;29;20106;-81
2023/04/06 10:31:31;;;;;;;;;;;;;;;14.54;29.99;101099.09;4956250;29;20039;-81
2023/04/06 10:34:00;;;;;;;8.57;5.47;;;;;;;14.52;29.39;101082.91;4958510;28;19929;-81
2023/04/06 10:36:32;;;;;;;7.07;4.63;;;;;;;14.46;30.34;101078.53;4956479;28;20520;-81
2023/04/06 10:39:02;;;;;;;8.40;5.20;;;;;;;14.80;30.55;101091.34;4966350;28;20367;-81
2023/04/06 10:41:35;;;;;;;9.70;5.32;;;;;;;14.71;30.35;101091.16;4969685;28;20055;-81
2023/04/06 10:44:03;;;;;;;9.43;5.57;;;;;;;14.90;30.57;101084.88;4962556;28;20047;-81
2023/04/06 10:46:33;;;;;;;7.28;5.32;;;;;;;14.81;29.16;101078.41;4968082;28;20051;-82
2023/04/06 10:49:13;;;;;;;7.57;5.22;;;;;;;15.04;30.33;101084.97;4962525;28;20074;-82
2023/04/06 10:51:43;;;;;;;6.95;5.57;;;;;;;14.98;29.29;101087.00;4969529;28;20047;-81
2023/04/06 10:54:13;;;;;;;6.72;5.30;;;;;;;15.10;29.38;101078.25;4964371;28;20042;-81
2023/04/06 10:56:46;;;;;;;8.57;4.55;;;;;;;14.89;28.85;101067.56;4971865;28;20047;-82
2023/04/06 10:59:24;;;;;;;10.77;5.32;;;;;;;15.16;28.95;101059.72;4973380;28;20066;-81
2023/04/06 11:01:55;;;;;;;8.50;5.10;;;;;;;15.18;29.85;101065.75;4972195;28;20057;-82
2023/04/06 11:04:26;;;;;;;9.55;5.45;;;;;;;15.37;29.04;101053.88;4973030;28;20046;-82
2023/04/06 11:06:57;;;;;;;8.55;5.25;;;;;;;15.43;30.01;101072.81;4971104;28;20051;-81
2023/04/06 11:09:28;;;;;;;8.60;5.30;;;;;;;15.55;29.25;101058.53;4955772;28;20055;-81
2023/04/06 11:11:57;;;;;;;13.07;5.70;;;;;;;15.63;28.58;101058.97;4947573;29;20502;-82
2023/04/06 11:14:27;;;;;;;8.60;5.60;;;;;;;15.73;29.46;101042.22;4964545;28;20050;-81
2023/04/06 11:16:57;;;;;;;9.35;5.45;;;;;;;15.49;29.00;101045.13;4960847;28;20047;-82
2023/04/06 11:19:29;;;;;;;7.45;5.60;;;;;;;15.63;29.52;101036.91;4967935;28;20054;-81
2023/04/06 11:22:07;;;;;;;12.27;5.72;;;;;;;15.83;29.60;101042.03;4971900;28;20054;-81
2023/04/06 11:24:35;;;;;;;8.65;5.43;;;;;;;15.90;28.39;101047.16;4959301;28;20050;-82
2023/04/06 11:27:04;;;;;;;10.48;5.78;;;;;;;16.18;28.86;101041.66;4973451;28;20038;-81
2023/04/06 11:29:36;;;;;;;7.00;4.97;;;;;;;16.15;29.32;101035.94;4968850;28;20510;-82
2023/04/06 11:32:06;;;;;;;8.95;6.07;;;;;;;16.16;27.90;101027.38;4964947;28;20051;-82
2023/04/06 11:34:38;;;;;;;8.38;5.40;;;;;;;16.05;29.10;101015.72;4973161;28;20062;-81
2023/04/06 11:37:11;;;;;;;7.50;5.18;;;;;;;15.87;27.18;101022.13;4971879;28;20506;-81
2023/04/06 11:39:46;;;;;;;;;;;;;;;16.12;28.47;101021.66;4972274;28;20050;-81
2023/04/06 11:42:22;;;;;;;12.73;5.95;;;;;;;16.01;28.70;101013.84;4945320;29;19949;-82
2023/04/06 11:44:56;;;;;;;9.35;5.40;;;;;;;16.39;29.02;101014.44;4954084;29;20059;-82
2023/04/06 11:47:32;;;;;;;9.27;5.43;;;;;;;16.42;28.89;101006.69;4953183;29;20077;-81
2023/04/06 11:50:09;;;;;;;7.35;5.13;;;;;;;16.27;28.25;101005.88;4954157;29;20310;-81